Time;durP1;ratioP1;P1;durP2;ratioP2;P2;SDS_P1;SDS_P2;PMS_P1;PMS_P2;Temp;Humidity;BMP_temperature;BMP_pressure;BME280_temperature;BME280_humidity;BME280_pressure;Samples;Min_cycle;Max_cycle;Signal;HPM_P1;HPM_P2
2024/01/26 00:02:11;;;;;;;20.05;10.70;;;;;;;;;;5019770;28;20043;-69
2024/01/26 00:04:37;;;;;;;23.45;12.48;;;;;;;;;;4987081;28;20617;-70
2024/01/26 00:07:04;;;;;;;18.58;10.18;;;;;;;;;;4986712;28;20121;-70
2024/01/26 00:09:30;;;;;;;18.42;10.65;;;;;;;;;;4988895;28;20058;-70
2024/01/26 00:11:57;;;;;;;21.73;11.60;;;;;;;;;;4994631;28;20399;-69
2024/01/26 00:14:23;;;;;;;20.00;10.90;;;;;;;;;;4988202;28;20493;-70
2024/01/26 00:16:49;;;;;;;24.17;12.77;;;;;;;;;;4991310;28;20811;-69
2024/01/26 00:19:15;;;;;;;22.00;12.80;;;;;;;;;;4987056;28;20513;-70
2024/01/26 00:21:41;;;;;;;26.35;13.48;;;;;;;;;;4986938;28;20039;-70
2024/01/26 00:24:07;;;;;;;15.77;8.90;;;;;;;;;;5015428;28;20042;-69
2024/01/26 00:26:33;;;;;;;18.95;11.77;;;;;;;;;;5016562;28;20052;-69
2024/01/26 00:28:59;;;;;;;19.45;11.57;;;;;;;;;;4984303;28;20050;-70
2024/01/26 00:31:25;;;;;;;21.58;11.27;;;;;;;;;;5014137;28;20046;-69
2024/01/26 00:33:54;;;;;;;19.70;10.82;;;;;;;;;;4983151;28;20120;-70
2024/01/26 00:36:20;;;;;;;17.40;10.52;;;;;;;;;;4988141;28;20501;-69
2024/01/26 00:38:46;;;;;;;24.23;11.35;;;;;;;;;;5016960;28;20042;-70
2024/01/26 00:41:12;;;;;;;19.85;11.43;;;;;;;;;;4992496;28;20038;-70
2024/01/26 00:43:38;;;;;;;21.75;10.82;;;;;;;;;;5015725;28;20137;-69
2024/01/26 00:46:08;;;;;;;22.48;11.40;;;;;;;;;;4987966;28;20173;-70
2024/01/26 00:48:34;;;;;;;23.58;12.48;;;;;;;;;;4987184;28;20042;-70
2024/01/26 00:51:00;;;;;;;23.40;12.57;;;;;;;;;;4990689;28;20050;-70
2024/01/26 00:53:26;;;;;;;22.52;13.63;;;;;;;;;;5018476;28;20050;-69
2024/01/26 00:55:52;;;;;;;20.60;12.48;;;;;;;;;;4987695;28;20521;-69
2024/01/26 00:58:18;;;;;;;21.52;13.18;;;;;;;;;;5020151;28;20389;-69
2024/01/26 01:00:44;;;;;;;28.17;14.23;;;;;;;;;;4986384;28;20042;-70
2024/01/26 01:03:10;;;;;;;18.98;10.75;;;;;;;;;;4986365;28;20466;-70
2024/01/26 01:05:36;;;;;;;24.25;12.82;;;;;;;;;;4984100;28;20042;-70
2024/01/26 01:08:02;;;;;;;16.27;10.48;;;;;;;;;;5021121;28;20133;-69
2024/01/26 01:10:28;;;;;;;25.77;14.20;;;;;;;;;;5018705;28;20069;-69
2024/01/26 01:12:54;;;;;;;22.85;13.25;;;;;;;;;;5020788;28;20070;-69
2024/01/26 01:15:23;;;;;;;18.65;12.43;;;;;;;;;;4981797;28;20046;-69
2024/01/26 01:17:49;;;;;;;20.70;12.38;;;;;;;;;;4978858;28;20047;-69
2024/01/26 01:20:15;;;;;;;20.20;12.50;;;;;;;;;;4983287;28;20398;-70
2024/01/26 01:22:45;;;;;;;22.77;12.95;;;;;;;;;;4979600;28;20126;-70
2024/01/26 01:25:14;;;;;;;26.27;12.27;;;;;;;;;;4980758;28;20505;-70
2024/01/26 01:27:40;;;;;;;20.35;10.15;;;;;;;;;;4982786;28;20042;-70
2024/01/26 01:30:07;;;;;;;23.52;11.68;;;;;;;;;;5011642;28;20078;-70
2024/01/26 01:32:34;;;;;;;19.42;11.88;;;;;;;;;;5019684;28;20061;-69
2024/01/26 01:35:00;;;;;;;23.65;12.50;;;;;;;;;;4987934;28;20217;-70
2024/01/26 01:37:26;;;;;;;24.40;13.57;;;;;;;;;;4991664;28;20414;-69
2024/01/26 01:39:52;;;;;;;21.13;12.38;;;;;;;;;;4986078;28;20057;-69
2024/01/26 01:42:18;;;;;;;21.80;14.18;;;;;;;;;;4984435;28;20129;-69
2024/01/26 01:44:44;;;;;;;25.88;15.65;;;;;;;;;;4987709;28;20046;-69
2024/01/26 01:47:11;;;;;;;22.27;14.45;;;;;;;;;;4986340;28;20042;-69
2024/01/26 01:49:41;;;;;;;33.22;19.63;;;;;;;;;;4989288;28;20565;-69
2024/01/26 01:52:16;;;;;;;35.58;19.25;;;;;;;;;;4991180;28;20046;-69
2024/01/26 01:54:43;;;;;;;28.85;18.85;;;;;;;;;;4990941;28;20553;-70
2024/01/26 01:57:11;;;;;;;39.92;23.35;;;;;;;;;;4997192;28;20486;-69
2024/01/26 01:59:37;;;;;;;39.67;23.75;;;;;;;;;;4991675;28;20054;-69
2024/01/26 02:02:04;;;;;;;37.22;22.30;;;;;;;;;;4996049;28;20030;-69
2024/01/26 02:04:30;;;;;;;33.17;18.38;;;;;;;;;;4993971;28;20050;-70
2024/01/26 02:06:57;;;;;;;32.97;17.98;;;;;;;;;;4988428;28;20035;-69
2024/01/26 02:09:23;;;;;;;34.65;19.17;;;;;;;;;;4992553;28;20046;-70
2024/01/26 02:11:49;;;;;;;38.38;18.92;;;;;;;;;;4992238;28;20054;-69
2024/01/26 02:14:15;;;;;;;28.83;16.08;;;;;;;;;;4994194;28;20808;-69
2024/01/26 02:16:52;;;;;;;27.27;14.95;;;;;;;;;;4991335;28;20042;-70
2024/01/26 02:19:18;;;;;;;28.30;16.55;;;;;;;;;;4983820;28;20058;-69
2024/01/26 02:21:44;;;;;;;27.73;13.00;;;;;;;;;;4992453;28;20394;-69
2024/01/26 02:24:10;;;;;;;29.52;14.82;;;;;;;;;;4986064;28;20046;-69
2024/01/26 02:26:36;;;;;;;28.23;15.73;;;;;;;;;;4985108;28;20058;-70
2024/01/26 02:29:02;;;;;;;31.60;16.05;;;;;;;;;;5016599;28;20058;-69
2024/01/26 02:31:28;;;;;;;29.80;15.63;;;;;;;;;;5016878;28;20058;-69
2024/01/26 02:33:54;;;;;;;34.20;15.80;;;;;;;;;;5016490;28;20479;-69
2024/01/26 02:36:20;;;;;;;27.25;16.38;;;;;;;;;;4988514;28;20089;-69
2024/01/26 02:38:46;;;;;;;29.17;16.60;;;;;;;;;;4992759;28;20064;-70
2024/01/26 02:41:12;;;;;;;27.88;14.38;;;;;;;;;;4993581;28;20054;-70
2024/01/26 02:43:38;;;;;;;33.90;18.10;;;;;;;;;;4988193;28;20050;-69
2024/01/26 02:46:11;;;;;;;27.08;14.88;;;;;;;;;;4987942;28;20046;-69
2024/01/26 02:48:37;;;;;;;28.00;15.63;;;;;;;;;;4989457;28;20042;-69
2024/01/26 02:51:03;;;;;;;36.63;18.30;;;;;;;;;;4993522;28;20065;-69
2024/01/26 02:53:29;;;;;;;36.30;16.63;;;;;;;;;;4993804;28;20042;-69
2024/01/26 02:55:55;;;;;;;34.85;17.85;;;;;;;;;;4993553;28;20045;-69
2024/01/26 02:58:21;;;;;;;34.00;16.92;;;;;;;;;;4992912;28;20398;-70
2024/01/26 03:00:50;;;;;;;44.28;19.23;;;;;;;;;;4989697;28;20042;-69
2024/01/26 03:03:17;;;;;;;42.75;20.85;;;;;;;;;;4990315;28;20035;-71
2024/01/26 03:05:43;;;;;;;43.65;21.65;;;;;;;;;;4990647;28;20081;-70
2024/01/26 03:08:09;;;;;;;42.17;20.98;;;;;;;;;;5024322;28;20750;-69
2024/01/26 03:10:35;;;;;;;46.30;22.77;;;;;;;;;;5017849;28;20101;-70
2024/01/26 03:13:01;;;;;;;46.63;23.40;;;;;;;;;;5025134;28;20569;-69
2024/01/26 03:15:27;;;;;;;50.33;25.90;;;;;;;;;;5021462;28;20050;-69
2024/01/26 03:17:53;;;;;;;42.60;24.27;;;;;;;;;;4986334;28;20049;-70
2024/01/26 03:20:19;;;;;;;49.17;25.10;;;;;;;;;;4989592;28;20399;-70
2024/01/26 03:22:45;;;;;;;50.30;26.30;;;;;;;;;;4986099;28;20054;-70
2024/01/26 03:25:11;;;;;;;52.38;26.27;;;;;;;;;;5017254;28;20046;-69
2024/01/26 03:27:37;;;;;;;47.20;23.45;;;;;;;;;;4988461;28;20572;-70
2024/01/26 03:30:06;;;;;;;50.22;24.00;;;;;;;;;;4982095;28;20486;-69
2024/01/26 03:32:32;;;;;;;45.13;22.38;;;;;;;;;;4987488;28;20057;-69
2024/01/26 03:34:59;;;;;;;36.60;19.70;;;;;;;;;;4986085;28;20133;-69
2024/01/26 03:37:25;;;;;;;49.55;22.63;;;;;;;;;;5015983;28;20050;-70
2024/01/26 03:39:51;;;;;;;47.85;24.50;;;;;;;;;;4988165;28;20049;-70
2024/01/26 03:42:17;;;;;;;43.17;23.60;;;;;;;;;;5022922;28;20047;-70
2024/01/26 03:44:43;;;;;;;41.88;22.05;;;;;;;;;;4991855;28;20038;-70
2024/01/26 03:47:10;;;;;;;59.50;27.15;;;;;;;;;;4996740;28;20081;-69
2024/01/26 03:49:36;;;;;;;49.15;26.55;;;;;;;;;;5021132;28;20044;-69
2024/01/26 03:52:04;;;;;;;45.30;23.88;;;;;;;;;;4989969;28;20073;-69
2024/01/26 03:54:30;;;;;;;49.45;27.58;;;;;;;;;;4990445;28;20043;-70
2024/01/26 03:56:56;;;;;;;47.97;24.30;;;;;;;;;;4992615;28;20046;-69
2024/01/26 03:59:22;;;;;;;45.33;24.98;;;;;;;;;;4991210;28;20045;-69
2024/01/26 04:01:48;;;;;;;46.58;25.30;;;;;;;;;;4990485;28;20490;-69
2024/01/26 04:04:14;;;;;;;50.53;26.15;;;;;;;;;;4990450;28;20050;-70
2024/01/26 04:06:41;;;;;;;48.70;24.95;;;;;;;;;;4993267;28;20054;-70
2024/01/26 04:09:07;;;;;;;46.10;25.40;;;;;;;;;;4989568;28;20121;-70
2024/01/26 04:11:33;;;;;;;43.22;23.77;;;;;;;;;;5015273;28;20784;-70
2024/01/26 04:13:59;;;;;;;49.30;25.85;;;;;;;;;;4984667;28;20073;-70
2024/01/26 04:16:25;;;;;;;48.17;24.95;;;;;;;;;;5016734;28;20065;-69
2024/01/26 04:18:51;;;;;;;40.13;22.90;;;;;;;;;;4986049;28;20128;-70
2024/01/26 04:21:17;;;;;;;45.50;22.88;;;;;;;;;;4990729;28;20576;-70
2024/01/26 04:23:46;;;;;;;43.53;24.00;;;;;;;;;;5019416;28;20057;-69
2024/01/26 04:26:14;;;;;;;40.53;23.35;;;;;;;;;;4985485;28;20375;-69
2024/01/26 04:28:40;;;;;;;33.58;17.45;;;;;;;;;;4985146;28;20503;-70
2024/01/26 04:31:07;;;;;;;42.60;25.23;;;;;;;;;;4988756;28;20442;-69
2024/01/26 04:33:33;;;;;;;41.30;24.05;;;;;;;;;;4983387;28;20085;-69
2024/01/26 04:36:00;;;;;;;39.03;24.40;;;;;;;;;;4986597;28;20070;-70
2024/01/26 04:38:26;;;;;;;41.22;23.27;;;;;;;;;;4990288;28;20046;-69
2024/01/26 04:40:52;;;;;;;33.38;20.65;;;;;;;;;;4989543;28;20483;-69
2024/01/26 04:43:19;;;;;;;36.25;21.67;;;;;;;;;;4989199;28;20498;-70
2024/01/26 04:45:45;;;;;;;34.20;20.48;;;;;;;;;;4985867;28;20804;-69
2024/01/26 04:48:11;;;;;;;40.20;22.95;;;;;;;;;;4988074;28;20046;-69
2024/01/26 04:50:37;;;;;;;42.75;24.25;;;;;;;;;;4987912;28;20050;-70
2024/01/26 04:53:03;;;;;;;38.85;22.90;;;;;;;;;;4992632;28;20494;-69
2024/01/26 04:55:29;;;;;;;43.50;25.88;;;;;;;;;;4991318;28;20398;-69
2024/01/26 04:57:55;;;;;;;40.85;22.63;;;;;;;;;;4989499;28;20525;-69
2024/01/26 05:00:22;;;;;;;34.38;20.75;;;;;;;;;;5019909;28;20043;-69
2024/01/26 05:02:48;;;;;;;46.00;27.17;;;;;;;;;;5017575;28;20058;-69
2024/01/26 05:05:14;;;;;;;40.70;23.70;;;;;;;;;;4989093;28;20050;-70
2024/01/26 05:07:41;;;;;;;40.78;22.88;;;;;;;;;;4985222;28;20049;-70
2024/01/26 05:10:07;;;;;;;46.65;25.60;;;;;;;;;;4986384;28;20093;-70
2024/01/26 05:12:34;;;;;;;40.67;24.13;;;;;;;;;;4989195;28;20073;-70
2024/01/26 05:15:00;;;;;;;45.35;25.80;;;;;;;;;;4987324;28;20054;-70
2024/01/26 05:17:26;;;;;;;41.03;25.52;;;;;;;;;;4989381;28;20038;-69
2024/01/26 05:19:52;;;;;;;41.17;24.15;;;;;;;;;;4988803;28;20050;-69
2024/01/26 05:22:19;;;;;;;41.72;26.13;;;;;;;;;;4988252;28;20488;-69
2024/01/26 05:24:45;;;;;;;40.83;24.50;;;;;;;;;;4990140;28;20062;-69
2024/01/26 05:27:12;;;;;;;48.67;27.17;;;;;;;;;;4996252;28;20058;-69
2024/01/26 05:29:38;;;;;;;44.53;25.35;;;;;;;;;;4994598;28;20046;-69
2024/01/26 05:32:04;;;;;;;48.58;28.88;;;;;;;;;;4991030;28;20062;-69
2024/01/26 05:34:30;;;;;;;44.00;26.60;;;;;;;;;;4993101;28;20046;-70
2024/01/26 05:36:56;;;;;;;48.63;27.27;;;;;;;;;;4994613;28;20053;-69
2024/01/26 05:39:22;;;;;;;44.55;26.60;;;;;;;;;;4991673;28;20043;-69
2024/01/26 05:41:48;;;;;;;44.33;25.77;;;;;;;;;;4984742;28;20053;-70
2024/01/26 05:44:14;;;;;;;47.55;27.45;;;;;;;;;;4991214;28;20501;-69
2024/01/26 05:46:40;;;;;;;42.15;25.33;;;;;;;;;;4993138;28;20057;-69
2024/01/26 05:49:06;;;;;;;43.63;26.23;;;;;;;;;;4985564;28;20411;-70
2024/01/26 05:51:32;;;;;;;59.03;32.65;;;;;;;;;;4990629;28;20042;-69
2024/01/26 05:53:58;;;;;;;53.33;29.50;;;;;;;;;;4993055;28;20046;-69
2024/01/26 05:56:25;;;;;;;46.92;27.50;;;;;;;;;;5024533;28;20175;-69
2024/01/26 05:58:52;;;;;;;50.63;26.40;;;;;;;;;;4993613;28;20150;-69
2024/01/26 06:01:18;;;;;;;39.72;22.52;;;;;;;;;;4988523;28;20050;-70
2024/01/26 06:03:44;;;;;;;44.58;28.08;;;;;;;;;;4995112;28;20042;-69
2024/01/26 06:06:10;;;;;;;49.05;28.60;;;;;;;;;;4992806;28;20042;-70
2024/01/26 06:08:36;;;;;;;43.70;25.52;;;;;;;;;;4992224;28;20053;-70
2024/01/26 06:11:05;;;;;;;47.15;29.08;;;;;;;;;;4983493;28;20101;-70
2024/01/26 06:13:31;;;;;;;45.88;25.20;;;;;;;;;;4993100;28;20406;-70
2024/01/26 06:15:57;;;;;;;37.30;22.65;;;;;;;;;;4989618;28;20046;-69
2024/01/26 06:18:23;;;;;;;53.88;27.30;;;;;;;;;;4989436;28;20077;-69
2024/01/26 06:20:52;;;;;;;37.42;22.77;;;;;;;;;;4996660;28;20034;-69
2024/01/26 06:23:18;;;;;;;45.65;25.52;;;;;;;;;;5026319;28;20321;-70
2024/01/26 06:25:44;;;;;;;28.25;17.05;;;;;;;;;;5019446;28;20123;-70
2024/01/26 06:28:15;;;;;;;37.65;21.00;;;;;;;;;;4984961;28;20078;-70
2024/01/26 06:30:41;;;;;;;44.13;24.73;;;;;;;;;;4989310;28;20038;-70
2024/01/26 06:33:07;;;;;;;32.15;17.88;;;;;;;;;;4985356;28;20046;-70
2024/01/26 06:35:33;;;;;;;24.10;15.95;;;;;;;;;;5009026;28;20098;-70
2024/01/26 06:37:59;;;;;;;14.23;8.90;;;;;;;;;;4987384;28;20069;-69
2024/01/26 06:40:25;;;;;;;8.82;6.13;;;;;;;;;;4989777;28;20050;-69
2024/01/26 06:42:51;;;;;;;11.48;5.22;;;;;;;;;;4990509;28;20055;-68
2024/01/26 06:45:17;;;;;;;10.07;6.78;;;;;;;;;;4988550;28;20062;-69
2024/01/26 06:47:43;;;;;;;9.07;6.40;;;;;;;;;;4988509;28;20129;-69
2024/01/26 06:50:10;;;;;;;10.63;6.00;;;;;;;;;;4992245;28;20054;-69
2024/01/26 06:52:36;;;;;;;10.98;7.25;;;;;;;;;;4989357;28;20462;-69
2024/01/26 06:55:02;;;;;;;15.30;8.10;;;;;;;;;;4992178;28;20046;-68
2024/01/26 06:57:28;;;;;;;10.85;7.82;;;;;;;;;;4989534;28;20783;-69
2024/01/26 06:59:54;;;;;;;20.08;10.40;;;;;;;;;;4983039;28;20051;-69
2024/01/26 07:02:20;;;;;;;12.80;8.07;;;;;;;;;;4988889;28;20050;-68
2024/01/26 07:04:47;;;;;;;13.90;8.52;;;;;;;;;;4990396;28;20037;-69
2024/01/26 07:07:13;;;;;;;21.63;10.40;;;;;;;;;;4994501;28;20478;-69
2024/01/26 07:09:39;;;;;;;21.95;10.52;;;;;;;;;;4983057;28;20097;-69
2024/01/26 07:12:05;;;;;;;17.13;8.90;;;;;;;;;;4993442;28;20411;-69
2024/01/26 07:14:31;;;;;;;22.05;10.30;;;;;;;;;;4994425;28;20069;-69
2024/01/26 07:16:57;;;;;;;30.30;12.82;;;;;;;;;;4988372;28;20470;-69
2024/01/26 07:19:23;;;;;;;26.23;13.05;;;;;;;;;;4984314;28;20042;-70
2024/01/26 07:21:49;;;;;;;26.05;12.07;;;;;;;;;;4996955;28;20045;-69
2024/01/26 07:24:15;;;;;;;32.88;12.63;;;;;;;;;;4991958;28;20387;-69
2024/01/26 07:26:41;;;;;;;34.22;14.25;;;;;;;;;;4994613;28;20038;-69
2024/01/26 07:29:07;;;;;;;29.77;12.68;;;;;;;;;;4990078;28;20426;-69
2024/01/26 07:31:33;;;;;;;23.77;9.45;;;;;;;;;;4988963;28;20046;-69
2024/01/26 07:33:59;;;;;;;23.83;10.52;;;;;;;;;;4991439;28;20077;-67
2024/01/26 07:36:25;;;;;;;27.90;10.32;;;;;;;;;;4989913;28;20467;-68
2024/01/26 07:38:51;;;;;;;31.45;11.20;;;;;;;;;;4987763;28;20038;-69
2024/01/26 07:41:17;;;;;;;33.40;11.75;;;;;;;;;;4977834;28;20042;-69
2024/01/26 07:43:46;;;;;;;27.45;11.05;;;;;;;;;;4990954;28;20391;-69
2024/01/26 07:46:12;;;;;;;25.33;9.13;;;;;;;;;;5023703;28;20398;-68
2024/01/26 07:48:38;;;;;;;20.20;7.47;;;;;;;;;;4987224;28;20046;-69
2024/01/26 07:51:04;;;;;;;18.50;7.43;;;;;;;;;;4982645;28;20061;-68
2024/01/26 07:53:30;;;;;;;36.38;10.23;;;;;;;;;;4979094;28;20368;-69
2024/01/26 07:55:56;;;;;;;31.83;8.75;;;;;;;;;;4981214;28;20099;-69
2024/01/26 07:58:22;;;;;;;22.33;6.38;;;;;;;;;;4990216;28;20125;-68
2024/01/26 08:00:51;;;;;;;35.30;9.70;;;;;;;;;;4985056;28;20099;-69
2024/01/26 08:03:17;;;;;;;32.65;10.25;;;;;;;;;;4985858;28;20045;-69
2024/01/26 08:05:44;;;;;;;34.65;8.75;;;;;;;;;;4987005;28;20093;-69
2024/01/26 08:08:09;;;;;;;32.45;10.20;;;;;;;;;;4986064;28;20050;-69
2024/01/26 08:10:36;;;;;;;31.35;8.55;;;;;;;;;;4991325;28;20410;-69
2024/01/26 08:13:02;;;;;;;29.48;9.07;;;;;;;;;;4992488;28;20061;-69
2024/01/26 08:15:28;;;;;;;34.70;7.97;;;;;;;;;;4988286;28;20546;-69
2024/01/26 08:17:54;;;;;;;32.05;9.55;;;;;;;;;;4991971;28;20049;-69
2024/01/26 08:20:20;;;;;;;24.80;6.22;;;;;;;;;;4990779;28;20399;-69
2024/01/26 08:22:46;;;;;;;30.30;8.10;;;;;;;;;;4989477;28;20046;-69
2024/01/26 08:25:12;;;;;;;28.20;7.95;;;;;;;;;;4990058;28;20047;-69
2024/01/26 08:27:38;;;;;;;27.08;7.70;;;;;;;;;;4990806;28;20046;-69
2024/01/26 08:30:05;;;;;;;19.88;5.68;;;;;;;;;;4990002;28;20054;-69
2024/01/26 08:32:31;;;;;;;22.98;5.25;;;;;;;;;;4990019;28;20494;-69
2024/01/26 08:34:57;;;;;;;19.60;4.82;;;;;;;;;;4990191;28;20142;-69
2024/01/26 08:37:23;;;;;;;20.08;4.45;;;;;;;;;;4988411;28;20102;-69
2024/01/26 08:39:49;;;;;;;16.85;4.18;;;;;;;;;;4989156;28;20074;-69
2024/01/26 08:42:15;;;;;;;19.90;4.10;;;;;;;;;;4986422;28;20050;-69
2024/01/26 08:44:42;;;;;;;17.08;4.32;;;;;;;;;;4992046;28;20059;-69
2024/01/26 08:47:08;;;;;;;13.13;4.28;;;;;;;;;;4989647;28;20078;-69
2024/01/26 08:49:34;;;;;;;15.38;4.13;;;;;;;;;;4987601;28;20065;-69
2024/01/26 08:52:01;;;;;;;20.92;4.00;;;;;;;;;;4990657;28;20155;-69
2024/01/26 08:54:27;;;;;;;21.00;4.80;;;;;;;;;;4991221;28;20068;-69
2024/01/26 08:56:53;;;;;;;16.13;3.63;;;;;;;;;;4988611;28;20105;-68
2024/01/26 08:59:19;;;;;;;26.63;4.78;;;;;;;;;;4994785;28;20042;-69
2024/01/26 09:01:45;;;;;;;16.52;4.22;;;;;;;;;;4993070;28;20038;-69
2024/01/26 09:04:11;;;;;;;22.55;3.65;;;;;;;;;;4989854;28;20046;-69
2024/01/26 09:06:38;;;;;;;24.40;4.60;;;;;;;;;;4994724;28;20053;-69
2024/01/26 09:09:04;;;;;;;15.45;4.75;;;;;;;;;;4994283;28;20082;-68
2024/01/26 09:11:31;;;;;;;21.90;4.65;;;;;;;;;;4990254;28;20058;-69
2024/01/26 09:13:57;;;;;;;17.75;3.72;;;;;;;;;;4994193;28;20074;-68
2024/01/26 09:16:23;;;;;;;21.85;5.40;;;;;;;;;;4991500;28;20506;-69
2024/01/26 09:18:49;;;;;;;21.13;4.72;;;;;;;;;;4991728;28;20064;-68
2024/01/26 09:21:15;;;;;;;19.75;4.47;;;;;;;;;;4993484;28;20073;-68
2024/01/26 09:23:44;;;;;;;19.23;4.55;;;;;;;;;;4995423;28;20038;-68
2024/01/26 09:26:13;;;;;;;18.65;5.25;;;;;;;;;;4993681;28;20406;-69
2024/01/26 09:28:39;;;;;;;24.02;6.35;;;;;;;;;;4989286;28;20038;-69
2024/01/26 09:31:05;;;;;;;23.00;4.78;;;;;;;;;;4994263;28;20073;-69
2024/01/26 09:33:31;;;;;;;22.77;4.45;;;;;;;;;;4989545;28;20402;-68
2024/01/26 09:35:57;;;;;;;22.00;4.30;;;;;;;;;;4992073;28;20050;-68
2024/01/26 09:38:24;;;;;;;24.95;5.65;;;;;;;;;;4993743;28;20548;-69
2024/01/26 09:40:50;;;;;;;23.40;5.85;;;;;;;;;;4993236;28;20090;-68
2024/01/26 09:43:16;;;;;;;19.65;4.63;;;;;;;;;;4989356;28;20050;-69
2024/01/26 09:45:42;;;;;;;17.30;4.20;;;;;;;;;;4993688;28;20447;-69
2024/01/26 09:48:09;;;;;;;21.60;4.50;;;;;;;;;;4993525;28;20046;-69
2024/01/26 09:50:36;;;;;;;21.50;5.00;;;;;;;;;;4992981;28;20034;-69
2024/01/26 09:53:05;;;;;;;25.80;5.22;;;;;;;;;;4991668;28;20050;-69
2024/01/26 09:55:34;;;;;;;18.00;4.57;;;;;;;;;;4990671;28;20447;-69
2024/01/26 09:58:00;;;;;;;16.20;4.78;;;;;;;;;;4986990;28;20045;-68
2024/01/26 10:00:26;;;;;;;17.40;4.25;;;;;;;;;;4993051;28;20057;-68
2024/01/26 10:02:53;;;;;;;17.65;4.78;;;;;;;;;;4992500;28;20073;-68
2024/01/26 10:05:19;;;;;;;15.07;4.15;;;;;;;;;;4992641;28;20392;-69
2024/01/26 10:07:45;;;;;;;23.58;5.00;;;;;;;;;;4993032;28;20053;-68
2024/01/26 10:10:12;;;;;;;16.90;4.88;;;;;;;;;;4988251;28;20077;-69
2024/01/26 10:12:38;;;;;;;15.82;4.03;;;;;;;;;;4989832;28;20498;-69
2024/01/26 10:15:08;;;;;;;16.83;4.75;;;;;;;;;;4993554;28;20061;-68
2024/01/26 10:17:35;;;;;;;17.85;4.80;;;;;;;;;;4993606;28;20073;-69
2024/01/26 10:20:14;;;;;;;13.63;3.70;;;;;;;;;;4993817;28;20149;-68
2024/01/26 10:22:41;;;;;;;21.98;4.45;;;;;;;;;;4989133;28;20128;-68
2024/01/26 10:25:08;;;;;;;17.60;4.47;;;;;;;;;;4991932;28;20046;-68
2024/01/26 10:27:34;;;;;;;16.05;4.40;;;;;;;;;;4989671;28;20050;-68
2024/01/26 10:30:01;;;;;;;14.88;4.47;;;;;;;;;;4993188;28;20510;-68
2024/01/26 10:32:30;;;;;;;17.05;4.93;;;;;;;;;;4992262;28;20046;-69
2024/01/26 10:35:03;;;;;;;21.55;5.28;;;;;;;;;;4994090;28;20053;-68
2024/01/26 10:37:30;;;;;;;22.15;5.63;;;;;;;;;;4987077;28;20050;-69
2024/01/26 10:39:56;;;;;;;17.90;4.30;;;;;;;;;;4992041;28;20056;-68
2024/01/26 10:42:23;;;;;;;22.35;4.43;;;;;;;;;;4988827;28;20630;-68
2024/01/26 10:44:49;;;;;;;20.20;5.38;;;;;;;;;;4992195;28;20144;-69
2024/01/26 10:47:19;;;;;;;24.73;6.13;;;;;;;;;;4989111;28;20395;-69
2024/01/26 10:49:48;;;;;;;20.15;4.53;;;;;;;;;;4992824;28;20042;-68
2024/01/26 10:52:17;;;;;;;19.02;4.53;;;;;;;;;;4986101;28;20047;-69
2024/01/26 10:54:45;;;;;;;18.88;4.47;;;;;;;;;;4988337;28;20085;-69
2024/01/26 10:57:11;;;;;;;23.08;4.70;;;;;;;;;;4993844;28;20082;-68
2024/01/26 10:59:40;;;;;;;21.30;4.88;;;;;;;;;;4988220;28;20549;-69
2024/01/26 11:02:07;;;;;;;20.95;4.47;;;;;;;;;;4992833;28;20113;-68
2024/01/26 11:04:34;;;;;;;14.43;4.10;;;;;;;;;;4992038;28;20042;-68
2024/01/26 11:07:04;;;;;;;21.85;5.22;;;;;;;;;;4989003;28;20047;-68
2024/01/26 11:09:33;;;;;;;17.92;5.90;;;;;;;;;;4991971;28;20117;-68
2024/01/26 11:11:59;;;;;;;24.42;4.80;;;;;;;;;;4993261;28;20058;-68
2024/01/26 11:14:31;;;;;;;21.40;4.80;;;;;;;;;;4991644;28;20046;-67
2024/01/26 11:17:08;;;;;;;26.33;6.13;;;;;;;;;;4985995;28;20066;-68
2024/01/26 11:19:35;;;;;;;27.33;6.30;;;;;;;;;;4987944;28;20050;-69
2024/01/26 11:22:04;;;;;;;27.23;5.22;;;;;;;;;;4991574;28;20050;-68
2024/01/26 11:24:35;;;;;;;21.50;5.50;;;;;;;;;;4991058;28;20379;-69
2024/01/26 11:27:02;;;;;;;15.15;3.83;;;;;;;;;;4988326;28;20061;-68
2024/01/26 11:29:34;;;;;;;20.80;4.53;;;;;;;;;;4991216;28;20046;-68
2024/01/26 11:32:01;;;;;;;23.08;5.30;;;;;;;;;;4987555;28;20129;-69
2024/01/26 11:34:27;;;;;;;17.75;5.32;;;;;;;;;;4991013;28;20066;-68
2024/01/26 11:37:15;;;;;;;23.40;5.03;;;;;;;;;;4990982;28;20449;-68
2024/01/26 11:39:42;;;;;;;24.75;4.95;;;;;;;;;;4991331;28;20047;-69
2024/01/26 11:42:09;;;;;;;25.33;5.30;;;;;;;;;;4990569;28;20056;-68
2024/01/26 11:44:39;;;;;;;23.80;5.25;;;;;;;;;;4989213;28;20095;-69
2024/01/26 11:47:06;;;;;;;19.02;4.75;;;;;;;;;;4988700;28;20047;-68
2024/01/26 11:49:32;;;;;;;28.80;6.43;;;;;;;;;;4990228;28;20592;-69
2024/01/26 11:51:58;;;;;;;20.65;4.80;;;;;;;;;;4992262;28;20046;-68
2024/01/26 11:54:25;;;;;;;17.75;3.75;;;;;;;;;;4990284;28;20085;-68
2024/01/26 11:56:51;;;;;;;13.77;3.88;;;;;;;;;;4990124;28;20433;-69
2024/01/26 11:59:17;;;;;;;19.52;5.28;;;;;;;;;;4985983;28;20046;-68
2024/01/26 12:01:43;;;;;;;18.23;4.55;;;;;;;;;;4983119;28;20057;-68
2024/01/26 12:04:09;;;;;;;22.30;4.90;;;;;;;;;;4989642;28;20045;-68
2024/01/26 12:06:35;;;;;;;19.02;4.30;;;;;;;;;;4985687;28;20046;-69
2024/01/26 12:09:01;;;;;;;20.65;5.00;;;;;;;;;;4991910;28;20045;-68
2024/01/26 12:11:27;;;;;;;13.18;4.40;;;;;;;;;;4990666;28;20086;-68
2024/01/26 12:13:54;;;;;;;15.40;4.40;;;;;;;;;;4990883;28;20050;-68
2024/01/26 12:16:23;;;;;;;19.83;4.53;;;;;;;;;;4988306;28;20050;-68
2024/01/26 12:18:49;;;;;;;19.40;4.50;;;;;;;;;;4974264;28;20067;-69
2024/01/26 12:21:15;;;;;;;21.73;5.35;;;;;;;;;;4972477;28;20053;-68
2024/01/26 12:23:41;;;;;;;19.88;3.63;;;;;;;;;;4971539;28;20113;-69
2024/01/26 12:26:14;;;;;;;11.70;3.60;;;;;;;;;;4979426;28;20042;-68
2024/01/26 12:28:40;;;;;;;19.35;3.90;;;;;;;;;;4983151;28;20054;-68
2024/01/26 12:31:06;;;;;;;15.05;3.70;;;;;;;;;;4990770;28;20397;-68
2024/01/26 12:33:36;;;;;;;11.18;3.45;;;;;;;;;;4991116;28;20129;-68
2024/01/26 12:36:02;;;;;;;12.07;3.38;;;;;;;;;;4988987;28;20195;-68
2024/01/26 12:38:28;;;;;;;14.95;4.13;;;;;;;;;;4985508;28;20132;-68
2024/01/26 12:40:55;;;;;;;15.05;4.22;;;;;;;;;;4993022;28;20077;-68
2024/01/26 12:43:21;;;;;;;16.05;3.78;;;;;;;;;;4995540;28;20057;-67
2024/01/26 12:45:47;;;;;;;9.13;3.15;;;;;;;;;;4985766;28;23514;-67
2024/01/26 12:48:13;;;;;;;18.55;4.13;;;;;;;;;;4979300;28;20047;-67
2024/01/26 12:50:39;;;;;;;12.90;3.42;;;;;;;;;;4984488;28;20046;-68
2024/01/26 12:53:05;;;;;;;19.55;3.95;;;;;;;;;;4990266;28;20050;-68
2024/01/26 12:55:31;;;;;;;18.35;3.92;;;;;;;;;;4991308;28;20399;-69
2024/01/26 12:57:57;;;;;;;13.00;3.72;;;;;;;;;;4975435;28;20047;-68
2024/01/26 13:00:23;;;;;;;16.88;3.80;;;;;;;;;;4985787;28;20096;-68
2024/01/26 13:02:49;;;;;;;17.38;4.10;;;;;;;;;;4991083;28;20569;-68
2024/01/26 13:05:16;;;;;;;22.55;4.40;;;;;;;;;;4992052;28;20046;-68
2024/01/26 13:07:42;;;;;;;17.20;4.15;;;;;;;;;;4999449;28;20049;-68
2024/01/26 13:10:09;;;;;;;16.75;4.43;;;;;;;;;;4992343;28;20047;-68
2024/01/26 13:12:35;;;;;;;19.48;5.05;;;;;;;;;;5002993;28;20065;-69
2024/01/26 13:15:01;;;;;;;16.25;4.32;;;;;;;;;;4988030;28;20046;-68
2024/01/26 13:17:27;;;;;;;17.25;4.93;;;;;;;;;;4991084;28;20058;-68
2024/01/26 13:19:53;;;;;;;17.58;4.70;;;;;;;;;;4986465;28;20091;-68
2024/01/26 13:22:19;;;;;;;17.10;4.20;;;;;;;;;;4995950;28;20053;-69
2024/01/26 13:24:48;;;;;;;18.40;5.03;;;;;;;;;;4999967;28;20125;-69
2024/01/26 13:27:15;;;;;;;14.23;4.50;;;;;;;;;;4985218;28;20042;-68
2024/01/26 13:29:41;;;;;;;14.13;4.10;;;;;;;;;;5005600;28;20054;-69
2024/01/26 13:32:07;;;;;;;13.75;4.00;;;;;;;;;;4990487;28;20049;-69
2024/01/26 13:34:33;;;;;;;16.95;4.47;;;;;;;;;;4980552;28;20201;-69
2024/01/26 13:37:00;;;;;;;13.27;3.88;;;;;;;;;;4990985;28;20513;-68
2024/01/26 13:39:29;;;;;;;15.98;3.95;;;;;;;;;;5001594;28;20436;-68
2024/01/26 13:41:55;;;;;;;20.48;4.40;;;;;;;;;;4987947;28;20204;-68
2024/01/26 13:44:21;;;;;;;11.70;3.75;;;;;;;;;;4999568;28;20038;-68
2024/01/26 13:46:47;;;;;;;19.70;3.95;;;;;;;;;;4996947;28;20121;-68
2024/01/26 13:49:13;;;;;;;17.77;4.50;;;;;;;;;;4992642;28;20051;-68
2024/01/26 13:51:39;;;;;;;12.25;3.30;;;;;;;;;;4996605;28;20042;-68
2024/01/26 13:54:05;;;;;;;21.08;4.60;;;;;;;;;;5002892;28;20622;-67
2024/01/26 13:56:31;;;;;;;13.15;3.60;;;;;;;;;;5003034;28;20135;-68
2024/01/26 13:58:57;;;;;;;16.42;5.00;;;;;;;;;;4995785;28;20045;-68
2024/01/26 14:01:24;;;;;;;15.68;4.03;;;;;;;;;;5003928;28;20045;-68
2024/01/26 14:03:54;;;;;;;17.05;4.68;;;;;;;;;;5005472;28;20050;-69
2024/01/26 14:06:20;;;;;;;13.43;4.38;;;;;;;;;;5002390;28;20050;-68
2024/01/26 14:08:46;;;;;;;17.60;4.68;;;;;;;;;;5007191;28;20050;-68
2024/01/26 14:11:12;;;;;;;17.65;4.60;;;;;;;;;;4985307;28;20066;-69
2024/01/26 14:13:38;;;;;;;15.68;4.38;;;;;;;;;;4998956;28;20451;-68
2024/01/26 14:16:07;;;;;;;13.18;4.00;;;;;;;;;;4995876;28;20049;-68
2024/01/26 14:18:34;;;;;;;13.93;3.47;;;;;;;;;;5000307;28;20038;-68
2024/01/26 14:21:00;;;;;;;24.95;5.45;;;;;;;;;;5003125;28;20449;-68